sensor_id;sensor_type;location;lat;lon;timestamp;pressure;altitude;pressure_sealevel;temperature;humidity
596;BME280;19946;49.306;11.350;2023-12-29T00:01:11;96316.09;;;6.25;100.00
596;BME280;19946;49.306;11.350;2023-12-29T00:04:15;96330.97;;;6.45;100.00
596;BME280;19946;49.306;11.350;2023-12-29T00:07:15;96354.91;;;6.58;100.00
596;BME280;19946;49.306;11.350;2023-12-29T00:10:18;96306.19;;;6.31;100.00
596;BME280;19946;49.306;11.350;2023-12-29T00:13:18;96352.34;;;6.58;100.00
596;BME280;19946;49.306;11.350;2023-12-29T00:16:30;96287.28;;;6.32;100.00
596;BME280;19946;49.306;11.350;2023-12-29T00:19:34;96381.13;;;6.63;100.00
596;BME280;19946;49.306;11.350;2023-12-29T00:22:34;96341.88;;;6.48;100.00
596;BME280;19946;49.306;11.350;2023-12-29T00:25:39;96370.34;;;6.58;100.00
596;BME280;19946;49.306;11.350;2023-12-29T00:28:41;96381.53;;;6.70;100.00
596;BME280;19946;49.306;11.350;2023-12-29T00:31:42;96390.66;;;6.74;100.00
596;BME280;19946;49.306;11.350;2023-12-29T00:34:43;96343.63;;;6.48;100.00
596;BME280;19946;49.306;11.350;2023-12-29T00:37:43;96364.34;;;6.70;100.00
596;BME280;19946;49.306;11.350;2023-12-29T00:40:50;96335.63;;;6.64;100.00
596;BME280;19946;49.306;11.350;2023-12-29T00:43:51;96380.28;;;6.99;100.00
596;BME280;19946;49.306;11.350;2023-12-29T00:46:56;96360.75;;;6.84;100.00
596;BME280;19946;49.306;11.350;2023-12-29T00:49:56;96336.63;;;6.74;100.00
596;BME280;19946;49.306;11.350;2023-12-29T00:53:02;96335.78;;;6.73;100.00
596;BME280;19946;49.306;11.350;2023-12-29T00:56:02;96365.16;;;6.94;100.00
596;BME280;19946;49.306;11.350;2023-12-29T00:59:04;96375.03;;;7.01;100.00
596;BME280;19946;49.306;11.350;2023-12-29T01:02:05;96331.03;;;6.80;100.00
596;BME280;19946;49.306;11.350;2023-12-29T01:05:06;96355.09;;;6.91;100.00
596;BME280;19946;49.306;11.350;2023-12-29T01:08:10;96349.38;;;6.99;100.00
596;BME280;19946;49.306;11.350;2023-12-29T01:11:14;96323.22;;;6.81;100.00
596;BME280;19946;49.306;11.350;2023-12-29T01:14:19;96360.63;;;6.98;100.00
596;BME280;19946;49.306;11.350;2023-12-29T01:17:20;96346.69;;;6.77;100.00
596;BME280;19946;49.306;11.350;2023-12-29T01:20:28;96297.00;;;6.16;100.00
596;BME280;19946;49.306;11.350;2023-12-29T01:23:28;96352.59;;;6.17;100.00
596;BME280;19946;49.306;11.350;2023-12-29T01:26:29;96378.22;;;6.18;100.00
596;BME280;19946;49.306;11.350;2023-12-29T01:29:30;96379.19;;;6.05;100.00
596;BME280;19946;49.306;11.350;2023-12-29T01:32:32;96380.78;;;6.06;100.00
596;BME280;19946;49.306;11.350;2023-12-29T01:35:32;96382.16;;;5.99;100.00
596;BME280;19946;49.306;11.350;2023-12-29T01:38:34;96349.94;;;5.68;100.00
596;BME280;19946;49.306;11.350;2023-12-29T01:41:35;96330.63;;;5.62;100.00
596;BME280;19946;49.306;11.350;2023-12-29T01:44:40;96327.53;;;5.70;100.00
596;BME280;19946;49.306;11.350;2023-12-29T01:47:41;96294.75;;;5.35;100.00
596;BME280;19946;49.306;11.350;2023-12-29T01:50:44;96315.69;;;5.42;100.00
596;BME280;19946;49.306;11.350;2023-12-29T01:53:46;96318.28;;;5.42;100.00
596;BME280;19946;49.306;11.350;2023-12-29T01:56:52;96338.13;;;5.65;100.00
596;BME280;19946;49.306;11.350;2023-12-29T01:59:58;96283.16;;;5.17;100.00
596;BME280;19946;49.306;11.350;2023-12-29T02:03:01;96313.03;;;5.18;100.00
596;BME280;19946;49.306;11.350;2023-12-29T02:06:09;96355.03;;;5.42;100.00
596;BME280;19946;49.306;11.350;2023-12-29T02:09:16;96270.16;;;4.93;100.00
596;BME280;19946;49.306;11.350;2023-12-29T02:12:18;96303.03;;;5.01;100.00
596;BME280;19946;49.306;11.350;2023-12-29T02:31:54;96308.28;;;5.12;100.00
596;BME280;19946;49.306;11.350;2023-12-29T02:34:58;96328.72;;;5.13;100.00
596;BME280;19946;49.306;11.350;2023-12-29T02:38:00;96326.22;;;4.99;100.00
596;BME280;19946;49.306;11.350;2023-12-29T02:41:01;96327.66;;;5.03;100.00
596;BME280;19946;49.306;11.350;2023-12-29T02:44:01;96326.31;;;4.98;100.00
596;BME280;19946;49.306;11.350;2023-12-29T02:47:01;96296.63;;;4.81;100.00
596;BME280;19946;49.306;11.350;2023-12-29T02:50:06;96325.09;;;5.03;100.00
596;BME280;19946;49.306;11.350;2023-12-29T02:53:08;96327.25;;;5.09;100.00
596;BME280;19946;49.306;11.350;2023-12-29T02:56:08;96321.31;;;5.09;100.00
596;BME280;19946;49.306;11.350;2023-12-29T02:59:09;96318.72;;;5.09;100.00
596;BME280;19946;49.306;11.350;2023-12-29T03:02:09;96315.34;;;5.08;100.00
596;BME280;19946;49.306;11.350;2023-12-29T03:05:09;96277.31;;;4.88;100.00
596;BME280;19946;49.306;11.350;2023-12-29T03:08:10;96312.53;;;5.26;100.00
596;BME280;19946;49.306;11.350;2023-12-29T03:11:11;96305.09;;;5.21;100.00
596;BME280;19946;49.306;11.350;2023-12-29T03:14:11;96299.69;;;5.26;100.00
596;BME280;19946;49.306;11.350;2023-12-29T03:17:12;96289.81;;;5.20;100.00
596;BME280;19946;49.306;11.350;2023-12-29T03:20:12;96287.03;;;5.10;100.00
596;BME280;19946;49.306;11.350;2023-12-29T03:23:15;96293.50;;;5.16;100.00
596;BME280;19946;49.306;11.350;2023-12-29T03:26:15;96270.47;;;5.01;100.00
596;BME280;19946;49.306;11.350;2023-12-29T03:29:17;96250.03;;;4.87;100.00
596;BME280;19946;49.306;11.350;2023-12-29T03:32:17;96273.38;;;4.97;100.00
596;BME280;19946;49.306;11.350;2023-12-29T03:35:18;96228.13;;;4.69;100.00
596;BME280;19946;49.306;11.350;2023-12-29T03:38:18;96244.06;;;4.74;100.00
596;BME280;19946;49.306;11.350;2023-12-29T03:41:19;96232.53;;;4.54;100.00
596;BME280;19946;49.306;11.350;2023-12-29T03:44:21;96244.41;;;4.55;100.00
596;BME280;19946;49.306;11.350;2023-12-29T03:47:22;96254.97;;;4.51;100.00
596;BME280;19946;49.306;11.350;2023-12-29T03:50:23;96258.97;;;4.55;100.00
596;BME280;19946;49.306;11.350;2023-12-29T03:53:23;96270.16;;;4.54;100.00
596;BME280;19946;49.306;11.350;2023-12-29T03:56:24;96262.13;;;4.46;100.00
596;BME280;19946;49.306;11.350;2023-12-29T03:59:24;96252.63;;;4.33;100.00
596;BME280;19946;49.306;11.350;2023-12-29T04:02:26;96268.06;;;4.46;100.00
596;BME280;19946;49.306;11.350;2023-12-29T04:05:26;96267.22;;;4.60;100.00
596;BME280;19946;49.306;11.350;2023-12-29T04:08:27;96239.63;;;4.63;100.00
596;BME280;19946;49.306;11.350;2023-12-29T04:11:27;96249.22;;;4.87;100.00
596;BME280;19946;49.306;11.350;2023-12-29T04:14:29;96240.28;;;4.92;100.00
596;BME280;19946;49.306;11.350;2023-12-29T04:17:30;96233.31;;;4.82;100.00
596;BME280;19946;49.306;11.350;2023-12-29T04:20:30;96222.50;;;4.64;100.00
596;BME280;19946;49.306;11.350;2023-12-29T04:23:30;96248.78;;;4.80;100.00
596;BME280;19946;49.306;11.350;2023-12-29T04:26:35;96256.19;;;4.85;100.00
596;BME280;19946;49.306;11.350;2023-12-29T04:29:37;96223.28;;;4.52;100.00
596;BME280;19946;49.306;11.350;2023-12-29T04:32:37;96250.84;;;4.75;100.00
596;BME280;19946;49.306;11.350;2023-12-29T04:35:38;96203.59;;;4.52;100.00
596;BME280;19946;49.306;11.350;2023-12-29T04:38:39;96223.94;;;4.68;100.00
596;BME280;19946;49.306;11.350;2023-12-29T04:41:39;96250.84;;;4.88;100.00
596;BME280;19946;49.306;11.350;2023-12-29T04:44:40;96241.28;;;4.77;100.00
596;BME280;19946;49.306;11.350;2023-12-29T04:47:41;96215.50;;;4.66;100.00
596;BME280;19946;49.306;11.350;2023-12-29T04:50:42;96217.50;;;4.75;100.00
596;BME280;19946;49.306;11.350;2023-12-29T04:53:43;96223.94;;;4.68;100.00
596;BME280;19946;49.306;11.350;2023-12-29T04:56:43;96221.50;;;4.79;100.00
596;BME280;19946;49.306;11.350;2023-12-29T04:59:44;96244.00;;;5.01;100.00
596;BME280;19946;49.306;11.350;2023-12-29T05:02:44;96220.81;;;5.02;100.00
596;BME280;19946;49.306;11.350;2023-12-29T05:05:45;96254.56;;;5.09;100.00
596;BME280;19946;49.306;11.350;2023-12-29T05:08:45;96220.81;;;5.02;100.00
596;BME280;19946;49.306;11.350;2023-12-29T05:11:46;96234.06;;;5.22;100.00
596;BME280;19946;49.306;11.350;2023-12-29T05:14:46;96243.69;;;5.31;100.00
596;BME280;19946;49.306;11.350;2023-12-29T05:17:46;96230.75;;;5.32;100.00
596;BME280;19946;49.306;11.350;2023-12-29T05:20:47;96248.94;;;5.55;100.00
596;BME280;19946;49.306;11.350;2023-12-29T05:23:48;96249.03;;;5.66;100.00
596;BME280;19946;49.306;11.350;2023-12-29T05:26:49;96266.69;;;5.83;100.00
596;BME280;19946;49.306;11.350;2023-12-29T05:29:49;96243.69;;;5.81;100.00
596;BME280;19946;49.306;11.350;2023-12-29T05:32:49;96223.75;;;5.72;100.00
596;BME280;19946;49.306;11.350;2023-12-29T05:35:51;96221.69;;;5.90;100.00
596;BME280;19946;49.306;11.350;2023-12-29T05:38:51;96251.03;;;6.11;100.00
596;BME280;19946;49.306;11.350;2023-12-29T05:41:52;96238.78;;;6.15;100.00
596;BME280;19946;49.306;11.350;2023-12-29T05:44:53;96241.28;;;6.04;100.00
596;BME280;19946;49.306;11.350;2023-12-29T05:47:54;96253.06;;;6.19;100.00
596;BME280;19946;49.306;11.350;2023-12-29T05:50:55;96229.34;;;6.15;100.00
596;BME280;19946;49.306;11.350;2023-12-29T05:53:55;96250.28;;;6.22;100.00
596;BME280;19946;49.306;11.350;2023-12-29T05:56:55;96241.47;;;6.13;100.00
596;BME280;19946;49.306;11.350;2023-12-29T05:59:56;96252.03;;;6.21;100.00
596;BME280;19946;49.306;11.350;2023-12-29T06:02:56;96253.84;;;6.32;100.00
596;BME280;19946;49.306;11.350;2023-12-29T06:05:57;96237.53;;;6.20;100.00
596;BME280;19946;49.306;11.350;2023-12-29T06:08:57;96210.56;;;6.02;100.00
596;BME280;19946;49.306;11.350;2023-12-29T06:11:58;96260.56;;;6.22;100.00
596;BME280;19946;49.306;11.350;2023-12-29T06:14:59;96230.91;;;6.05;100.00
596;BME280;19946;49.306;11.350;2023-12-29T06:18:00;96242.69;;;6.08;100.00
596;BME280;19946;49.306;11.350;2023-12-29T06:21:02;96224.28;;;6.14;100.00
596;BME280;19946;49.306;11.350;2023-12-29T06:24:03;96243.84;;;6.16;100.00
596;BME280;19946;49.306;11.350;2023-12-29T06:27:03;96241.91;;;6.31;100.00
596;BME280;19946;49.306;11.350;2023-12-29T06:30:07;96197.66;;;6.15;100.00
596;BME280;19946;49.306;11.350;2023-12-29T06:33:07;96234.81;;;6.35;100.00
596;BME280;19946;49.306;11.350;2023-12-29T06:36:08;96198.34;;;6.17;100.00
596;BME280;19946;49.306;11.350;2023-12-29T06:39:09;96221.84;;;6.36;100.00
596;BME280;19946;49.306;11.350;2023-12-29T06:42:10;96224.53;;;6.35;100.00
596;BME280;19946;49.306;11.350;2023-12-29T06:45:10;96214.94;;;6.37;100.00
596;BME280;19946;49.306;11.350;2023-12-29T06:48:11;96228.44;;;6.51;100.00
596;BME280;19946;49.306;11.350;2023-12-29T06:51:18;96192.72;;;6.36;100.00
596;BME280;19946;49.306;11.350;2023-12-29T06:54:19;96218.59;;;6.45;100.00
596;BME280;19946;49.306;11.350;2023-12-29T06:57:20;96205.28;;;6.51;100.00
596;BME280;19946;49.306;11.350;2023-12-29T07:00:22;96210.59;;;6.61;100.00
596;BME280;19946;49.306;11.350;2023-12-29T07:03:24;96232.28;;;6.70;100.00
596;BME280;19946;49.306;11.350;2023-12-29T07:06:26;96226.69;;;6.76;100.00
596;BME280;19946;49.306;11.350;2023-12-29T07:09:27;96235.56;;;6.83;100.00
596;BME280;19946;49.306;11.350;2023-12-29T07:12:27;96249.06;;;6.86;100.00
596;BME280;19946;49.306;11.350;2023-12-29T07:15:28;96229.16;;;6.77;100.00
596;BME280;19946;49.306;11.350;2023-12-29T07:18:28;96236.91;;;6.88;100.00
596;BME280;19946;49.306;11.350;2023-12-29T07:21:30;96238.97;;;6.83;100.00
596;BME280;19946;49.306;11.350;2023-12-29T07:24:32;96210.31;;;6.77;100.00
596;BME280;19946;49.306;11.350;2023-12-29T07:27:32;96238.75;;;6.86;100.00
596;BME280;19946;49.306;11.350;2023-12-29T07:30:33;96238.50;;;6.78;100.00
596;BME280;19946;49.306;11.350;2023-12-29T07:33:33;96232.50;;;6.67;100.00
596;BME280;19946;49.306;11.350;2023-12-29T07:36:38;96240.69;;;6.72;100.00
596;BME280;19946;49.306;11.350;2023-12-29T07:39:38;96232.00;;;6.62;100.00
596;BME280;19946;49.306;11.350;2023-12-29T07:42:39;96232.97;;;6.72;100.00
596;BME280;19946;49.306;11.350;2023-12-29T07:45:39;96182.34;;;6.37;100.00
596;BME280;19946;49.306;11.350;2023-12-29T07:48:40;96225.34;;;6.59;100.00
596;BME280;19946;49.306;11.350;2023-12-29T07:51:41;96255.63;;;6.90;100.00
596;BME280;19946;49.306;11.350;2023-12-29T07:54:42;96251.94;;;6.82;100.00
596;BME280;19946;49.306;11.350;2023-12-29T07:57:43;96249.06;;;6.86;100.00
596;BME280;19946;49.306;11.350;2023-12-29T08:00:45;96223.59;;;6.71;100.00
596;BME280;19946;49.306;11.350;2023-12-29T08:03:46;96262.44;;;6.91;100.00
596;BME280;19946;49.306;11.350;2023-12-29T08:06:46;96266.75;;;6.91;100.00
596;BME280;19946;49.306;11.350;2023-12-29T08:09:47;96241.66;;;6.82;100.00
596;BME280;19946;49.306;11.350;2023-12-29T08:12:47;96284.13;;;7.11;100.00
596;BME280;19946;49.306;11.350;2023-12-29T08:15:48;96273.34;;;7.06;100.00
596;BME280;19946;49.306;11.350;2023-12-29T08:18:50;96259.38;;;6.97;100.00
596;BME280;19946;49.306;11.350;2023-12-29T08:21:50;96280.94;;;7.08;100.00
596;BME280;19946;49.306;11.350;2023-12-29T08:24:51;96293.16;;;7.17;100.00
596;BME280;19946;49.306;11.350;2023-12-29T08:27:51;96279.66;;;7.02;100.00
596;BME280;19946;49.306;11.350;2023-12-29T08:30:51;96279.41;;;7.05;100.00
596;BME280;19946;49.306;11.350;2023-12-29T08:33:52;96256.72;;;6.99;100.00
596;BME280;19946;49.306;11.350;2023-12-29T08:36:53;96285.31;;;7.18;100.00
596;BME280;19946;49.306;11.350;2023-12-29T08:39:54;96295.84;;;7.26;100.00
596;BME280;19946;49.306;11.350;2023-12-29T08:42:55;96256.97;;;7.07;100.00
596;BME280;19946;49.306;11.350;2023-12-29T08:45:56;96308.31;;;7.32;100.00
596;BME280;19946;49.306;11.350;2023-12-29T08:48:56;96303.88;;;7.35;100.00
596;BME280;19946;49.306;11.350;2023-12-29T08:51:57;96275.47;;;7.12;100.00
596;BME280;19946;49.306;11.350;2023-12-29T08:54:59;96310.38;;;7.27;100.00
596;BME280;19946;49.306;11.350;2023-12-29T08:58:01;96310.41;;;7.39;100.00
596;BME280;19946;49.306;11.350;2023-12-29T09:01:01;96284.28;;;7.21;100.00
596;BME280;19946;49.306;11.350;2023-12-29T09:04:01;96323.13;;;7.64;100.00
596;BME280;19946;49.306;11.350;2023-12-29T09:07:02;96327.06;;;7.46;100.00
596;BME280;19946;49.306;11.350;2023-12-29T09:10:05;96293.41;;;7.36;100.00
596;BME280;19946;49.306;11.350;2023-12-29T09:13:11;96322.72;;;7.35;100.00
596;BME280;19946;49.306;11.350;2023-12-29T09:16:13;96327.66;;;7.49;100.00
596;BME280;19946;49.306;11.350;2023-12-29T09:19:13;96333.63;;;7.50;100.00
596;BME280;19946;49.306;11.350;2023-12-29T09:22:14;96308.66;;;7.39;100.00
596;BME280;19946;49.306;11.350;2023-12-29T09:25:14;96302.25;;;7.45;100.00
596;BME280;19946;49.306;11.350;2023-12-29T09:28:15;96333.19;;;7.56;100.00
596;BME280;19946;49.306;11.350;2023-12-29T09:31:16;96344.34;;;7.67;100.00
596;BME280;19946;49.306;11.350;2023-12-29T09:34:16;96342.56;;;7.79;100.00
596;BME280;19946;49.306;11.350;2023-12-29T09:37:17;96325.81;;;7.62;100.00
596;BME280;19946;49.306;11.350;2023-12-29T09:40:19;96316.56;;;7.71;100.00
596;BME280;19946;49.306;11.350;2023-12-29T09:43:20;96330.13;;;7.51;100.00
596;BME280;19946;49.306;11.350;2023-12-29T09:46:21;96280.28;;;7.28;100.00
596;BME280;19946;49.306;11.350;2023-12-29T09:49:23;96319.00;;;7.61;100.00
596;BME280;19946;49.306;11.350;2023-12-29T09:52:25;96323.34;;;7.61;100.00
596;BME280;19946;49.306;11.350;2023-12-29T09:55:26;96304.34;;;7.51;100.00
596;BME280;19946;49.306;11.350;2023-12-29T09:58:27;96309.19;;;7.55;100.00
596;BME280;19946;49.306;11.350;2023-12-29T10:01:27;96278.78;;;7.37;100.00
596;BME280;19946;49.306;11.350;2023-12-29T10:04:30;96285.84;;;7.35;100.00
596;BME280;19946;49.306;11.350;2023-12-29T10:07:35;96307.16;;;7.48;100.00
596;BME280;19946;49.306;11.350;2023-12-29T10:10:39;96281.84;;;7.42;100.00
596;BME280;19946;49.306;11.350;2023-12-29T10:13:42;96263.66;;;7.21;100.00
596;BME280;19946;49.306;11.350;2023-12-29T10:17:06;96283.28;;;7.46;100.00
596;BME280;19946;49.306;11.350;2023-12-29T10:20:25;96284.31;;;7.43;100.00
596;BME280;19946;49.306;11.350;2023-12-29T10:23:34;96288.13;;;7.26;100.00
596;BME280;19946;49.306;11.350;2023-12-29T10:26:36;96301.59;;;7.19;100.00
596;BME280;19946;49.306;11.350;2023-12-29T10:29:38;96309.16;;;7.09;100.00
596;BME280;19946;49.306;11.350;2023-12-29T10:32:39;96307.97;;;7.02;100.00
596;BME280;19946;49.306;11.350;2023-12-29T10:35:53;96275.88;;;6.95;100.00
596;BME280;19946;49.306;11.350;2023-12-29T10:39:06;96270.72;;;6.95;100.00
596;BME280;19946;49.306;11.350;2023-12-29T10:42:10;96293.00;;;7.07;100.00
596;BME280;19946;49.306;11.350;2023-12-29T10:45:13;96280.56;;;6.90;100.00
596;BME280;19946;49.306;11.350;2023-12-29T10:48:21;96268.91;;;7.08;100.00
596;BME280;19946;49.306;11.350;2023-12-29T10:51:27;96275.47;;;7.12;100.00
596;BME280;19946;49.306;11.350;2023-12-29T10:54:35;96243.69;;;6.89;100.00
596;BME280;19946;49.306;11.350;2023-12-29T10:57:44;96249.09;;;6.97;100.00
596;BME280;19946;49.306;11.350;2023-12-29T11:01:13;96271.97;;;7.13;100.00
596;BME280;19946;49.306;11.350;2023-12-29T11:04:14;96266.84;;;7.24;100.00
596;BME280;19946;49.306;11.350;2023-12-29T11:07:14;96241.91;;;7.14;100.00
596;BME280;19946;49.306;11.350;2023-12-29T11:10:15;96234.53;;;7.20;100.00
596;BME280;19946;49.306;11.350;2023-12-29T11:13:15;96245.66;;;7.32;100.00
596;BME280;19946;49.306;11.350;2023-12-29T11:16:16;96253.75;;;7.39;100.00
596;BME280;19946;49.306;11.350;2023-12-29T11:19:21;96244.84;;;7.43;100.00
596;BME280;19946;49.306;11.350;2023-12-29T11:22:22;96235.94;;;7.47;100.00
596;BME280;19946;49.306;11.350;2023-12-29T11:25:22;96247.06;;;7.58;100.00
596;BME280;19946;49.306;11.350;2023-12-29T11:28:23;96236.66;;;7.49;100.00
596;BME280;19946;49.306;11.350;2023-12-29T11:31:24;96228.94;;;7.49;100.00
596;BME280;19946;49.306;11.350;2023-12-29T11:34:32;96207.88;;;7.55;100.00
596;BME280;19946;49.306;11.350;2023-12-29T11:41:12;96204.81;;;7.72;100.00
596;BME280;19946;49.306;11.350;2023-12-29T11:44:37;96177.63;;;7.68;100.00
596;BME280;19946;49.306;11.350;2023-12-29T11:47:44;96203.22;;;8.03;100.00
596;BME280;19946;49.306;11.350;2023-12-29T11:50:54;96218.25;;;7.98;100.00
596;BME280;19946;49.306;11.350;2023-12-29T11:53:54;96203.59;;;8.10;100.00
596;BME280;19946;49.306;11.350;2023-12-29T11:56:55;96210.38;;;8.11;100.00
596;BME280;19946;49.306;11.350;2023-12-29T11:59:56;96186.00;;;8.03;100.00
596;BME280;19946;49.306;11.350;2023-12-29T12:02:58;96195.75;;;8.11;100.00
596;BME280;19946;49.306;11.350;2023-12-29T12:06:00;96166.34;;;7.91;100.00
596;BME280;19946;49.306;11.350;2023-12-29T12:09:16;96169.25;;;8.09;100.00
596;BME280;19946;49.306;11.350;2023-12-29T12:12:42;96203.41;;;8.33;100.00
596;BME280;19946;49.306;11.350;2023-12-29T12:15:42;96186.69;;;8.17;100.00
596;BME280;19946;49.306;11.350;2023-12-29T12:18:45;96195.81;;;8.21;100.00
596;BME280;19946;49.306;11.350;2023-12-29T12:21:48;96192.88;;;8.25;100.00
596;BME280;19946;49.306;11.350;2023-12-29T12:24:57;96159.97;;;8.06;100.00
596;BME280;19946;49.306;11.350;2023-12-29T12:27:58;96179.25;;;8.34;100.00
596;BME280;19946;49.306;11.350;2023-12-29T12:31:07;96185.91;;;8.48;100.00
596;BME280;19946;49.306;11.350;2023-12-29T12:34:09;96183.75;;;8.32;100.00
596;BME280;19946;49.306;11.350;2023-12-29T12:37:10;96180.66;;;8.27;100.00
596;BME280;19946;49.306;11.350;2023-12-29T12:40:29;96183.25;;;8.27;100.00
596;BME280;19946;49.306;11.350;2023-12-29T12:43:31;96156.63;;;7.95;100.00
596;BME280;19946;49.306;11.350;2023-12-29T12:46:34;96191.97;;;8.15;100.00
596;BME280;19946;49.306;11.350;2023-12-29T12:49:38;96162.34;;;7.98;100.00
596;BME280;19946;49.306;11.350;2023-12-29T12:52:38;96178.28;;;7.92;100.00
596;BME280;19946;49.306;11.350;2023-12-29T12:55:40;96167.75;;;7.84;100.00
596;BME280;19946;49.306;11.350;2023-12-29T12:58:41;96196.31;;;8.03;100.00
596;BME280;19946;49.306;11.350;2023-12-29T13:01:43;96188.47;;;8.05;100.00
596;BME280;19946;49.306;11.350;2023-12-29T13:04:43;96175.09;;;8.11;100.00
596;BME280;19946;49.306;11.350;2023-12-29T13:07:44;96183.28;;;8.16;100.00
596;BME280;19946;49.306;11.350;2023-12-29T13:10:44;96160.09;;;8.05;100.00
596;BME280;19946;49.306;11.350;2023-12-29T13:13:45;96164.16;;;8.19;100.00
596;BME280;19946;49.306;11.350;2023-12-29T13:16:45;96179.84;;;8.27;100.00
596;BME280;19946;49.306;11.350;2023-12-29T13:19:55;96129.28;;;8.03;100.00
596;BME280;19946;49.306;11.350;2023-12-29T13:22:57;96183.47;;;8.35;100.00
596;BME280;19946;49.306;11.350;2023-12-29T13:25:59;96163.94;;;8.22;100.00
596;BME280;19946;49.306;11.350;2023-12-29T13:29:01;96162.03;;;8.35;100.00
596;BME280;19946;49.306;11.350;2023-12-29T13:32:07;96172.13;;;8.59;100.00
596;BME280;19946;49.306;11.350;2023-12-29T13:35:37;96159.53;;;8.45;100.00
596;BME280;19946;49.306;11.350;2023-12-29T13:38:44;96181.31;;;8.52;100.00
596;BME280;19946;49.306;11.350;2023-12-29T13:41:49;96178.47;;;8.55;100.00
596;BME280;19946;49.306;11.350;2023-12-29T13:44:51;96178.16;;;8.48;100.00
596;BME280;19946;49.306;11.350;2023-12-29T13:47:53;96166.44;;;8.44;100.00
596;BME280;19946;49.306;11.350;2023-12-29T13:50:54;96170.53;;;8.47;100.00
596;BME280;19946;49.306;11.350;2023-12-29T13:54:01;96118.56;;;8.19;100.00
596;BME280;19946;49.306;11.350;2023-12-29T13:57:02;96130.44;;;8.11;100.00
596;BME280;19946;49.306;11.350;2023-12-29T14:00:17;96160.22;;;8.47;100.00
596;BME280;19946;49.306;11.350;2023-12-29T14:03:31;96172.31;;;8.46;100.00
596;BME280;19946;49.306;11.350;2023-12-29T14:06:43;96174.69;;;8.38;100.00
596;BME280;19946;49.306;11.350;2023-12-29T14:09:54;96172.22;;;8.36;100.00
596;BME280;19946;49.306;11.350;2023-12-29T14:12:54;96175.41;;;8.29;100.00
596;BME280;19946;49.306;11.350;2023-12-29T14:15:58;96180.13;;;8.56;100.00
596;BME280;19946;49.306;11.350;2023-12-29T14:18:58;96176.22;;;8.40;100.00
596;BME280;19946;49.306;11.350;2023-12-29T14:21:59;96161.47;;;8.31;100.00
596;BME280;19946;49.306;11.350;2023-12-29T14:25:06;96169.53;;;8.27;100.00
596;BME280;19946;49.306;11.350;2023-12-29T14:28:19;96192.00;;;8.47;100.00
596;BME280;19946;49.306;11.350;2023-12-29T14:31:20;96191.09;;;8.37;100.00
596;BME280;19946;49.306;11.350;2023-12-29T14:34:20;96194.97;;;8.43;100.00
596;BME280;19946;49.306;11.350;2023-12-29T14:37:20;96166.38;;;8.23;100.00
596;BME280;19946;49.306;11.350;2023-12-29T14:40:21;96179.53;;;8.31;100.00
596;BME280;19946;49.306;11.350;2023-12-29T14:43:21;96182.09;;;8.20;100.00
596;BME280;19946;49.306;11.350;2023-12-29T14:46:22;96186.34;;;8.32;100.00
596;BME280;19946;49.306;11.350;2023-12-29T14:49:22;96162.41;;;8.19;100.00
596;BME280;19946;49.306;11.350;2023-12-29T14:52:23;96166.13;;;8.26;100.00
596;BME280;19946;49.306;11.350;2023-12-29T14:55:23;96159.22;;;8.27;100.00
596;BME280;19946;49.306;11.350;2023-12-29T14:58:26;96189.00;;;8.31;100.00
596;BME280;19946;49.306;11.350;2023-12-29T15:01:26;96170.03;;;8.32;100.00
596;BME280;19946;49.306;11.350;2023-12-29T15:04:27;96177.03;;;8.41;100.00
596;BME280;19946;49.306;11.350;2023-12-29T15:07:31;96157.59;;;8.15;100.00
596;BME280;19946;49.306;11.350;2023-12-29T15:10:33;96188.66;;;8.24;100.00
596;BME280;19946;49.306;11.350;2023-12-29T15:13:34;96158.47;;;8.04;100.00
596;BME280;19946;49.306;11.350;2023-12-29T15:16:34;96150.78;;;7.82;100.00
596;BME280;19946;49.306;11.350;2023-12-29T15:19:35;96155.84;;;7.72;100.00
596;BME280;19946;49.306;11.350;2023-12-29T15:22:36;96183.72;;;7.78;100.00
596;BME280;19946;49.306;11.350;2023-12-29T15:25:37;96154.47;;;7.46;100.00
596;BME280;19946;49.306;11.350;2023-12-29T15:28:38;96183.94;;;7.75;100.00
596;BME280;19946;49.306;11.350;2023-12-29T15:31:42;96153.25;;;7.72;100.00
596;BME280;19946;49.306;11.350;2023-12-29T15:34:43;96171.06;;;7.75;100.00
596;BME280;19946;49.306;11.350;2023-12-29T15:37:46;96167.06;;;7.82;100.00
596;BME280;19946;49.306;11.350;2023-12-29T15:40:47;96163.22;;;7.77;100.00
596;BME280;19946;49.306;11.350;2023-12-29T15:43:47;96152.69;;;7.57;100.00
596;BME280;19946;49.306;11.350;2023-12-29T15:46:49;96152.13;;;7.54;100.00
596;BME280;19946;49.306;11.350;2023-12-29T15:50:01;96171.78;;;7.44;100.00
596;BME280;19946;49.306;11.350;2023-12-29T15:53:02;96153.97;;;7.29;100.00
596;BME280;19946;49.306;11.350;2023-12-29T15:56:02;96144.50;;;7.30;100.00
596;BME280;19946;49.306;11.350;2023-12-29T15:59:04;96152.00;;;7.33;100.00
596;BME280;19946;49.306;11.350;2023-12-29T16:02:06;96153.50;;;7.36;100.00
596;BME280;19946;49.306;11.350;2023-12-29T16:05:07;96158.19;;;7.42;100.00
596;BME280;19946;49.306;11.350;2023-12-29T16:08:07;96172.94;;;7.51;100.00
596;BME280;19946;49.306;11.350;2023-12-29T16:11:07;96163.34;;;7.53;100.00
596;BME280;19946;49.306;11.350;2023-12-29T16:14:08;96154.09;;;7.39;100.00
596;BME280;19946;49.306;11.350;2023-12-29T16:17:08;96179.41;;;7.45;100.00
596;BME280;19946;49.306;11.350;2023-12-29T16:20:09;96173.19;;;7.48;100.00
596;BME280;19946;49.306;11.350;2023-12-29T16:23:10;96168.84;;;7.37;100.00
596;BME280;19946;49.306;11.350;2023-12-29T16:26:10;96143.34;;;7.34;100.00
596;BME280;19946;49.306;11.350;2023-12-29T16:29:11;96145.66;;;7.48;100.00
596;BME280;19946;49.306;11.350;2023-12-29T16:32:19;96164.06;;;7.55;100.00
596;BME280;19946;49.306;11.350;2023-12-29T16:35:20;96153.66;;;7.45;100.00
596;BME280;19946;49.306;11.350;2023-12-29T16:38:21;96112.19;;;7.26;100.00